createdAt,value
2016-07-19T00:00:42.258Z,59.45
2016-07-19T00:01:42.266Z,59.33
2016-07-19T00:02:41.542Z,59.62
2016-07-19T00:03:42.270Z,60
2016-07-19T00:04:41.550Z,61.07
2016-07-19T00:05:42.270Z,61.35
2016-07-19T00:06:42.274Z,61.07
2016-07-19T00:07:42.274Z,61.32
2016-07-19T00:08:42.274Z,62.38
2016-07-19T00:09:42.281Z,62.38
2016-07-19T00:10:42.278Z,62.48
2016-07-19T00:11:42.282Z,63.25
2016-07-19T00:12:42.282Z,63.54
2016-07-19T00:13:42.282Z,63.6
2016-07-19T00:14:42.286Z,63.89
2016-07-19T00:15:42.287Z,63.89
2016-07-19T00:16:42.290Z,64.47
2016-07-19T00:17:42.291Z,64.37
2016-07-19T00:18:42.290Z,64.76
2016-07-19T00:19:42.294Z,64.86
2016-07-19T00:20:42.294Z,65.72
2016-07-19T00:21:42.298Z,65.72
2016-07-19T00:22:42.298Z,66.39
2016-07-19T00:23:42.298Z,66.07
2016-07-19T00:24:42.302Z,66.84
2016-07-19T00:25:42.301Z,67.51
2016-07-19T00:26:42.306Z,67.8
2016-07-19T00:27:42.306Z,67.9
2016-07-19T00:28:42.306Z,68.48
2016-07-19T00:29:42.310Z,68.06
2016-07-19T00:30:42.310Z,68.44
2016-07-19T00:31:42.315Z,68.25
2016-07-19T00:32:42.326Z,68.25
2016-07-19T00:33:42.315Z,69.02
2016-07-19T00:34:42.315Z,69.12
2016-07-19T00:35:42.316Z,69.69
2016-07-19T00:36:42.320Z,69.5
2016-07-19T00:37:42.324Z,69.79
2016-07-19T00:38:42.325Z,70.17
2016-07-19T00:39:42.329Z,70.27
2016-07-19T00:40:42.328Z,70.37
2016-07-19T00:41:42.329Z,70.84
2016-07-19T00:42:42.329Z,70.75
2016-07-19T00:43:42.334Z,71.1
2016-07-19T00:44:42.338Z,71
2016-07-19T00:45:42.338Z,71.58
2016-07-19T00:46:42.338Z,71.96
2016-07-19T00:47:42.345Z,71.67
2016-07-19T00:48:42.343Z,71.77
2016-07-19T00:49:42.342Z,72.25
2016-07-19T00:50:42.347Z,72.25
2016-07-19T00:51:42.347Z,72.64
2016-07-19T00:52:42.346Z,72.83
2016-07-19T00:53:42.355Z,72.83
2016-07-19T00:54:42.350Z,73.21
2016-07-19T00:55:42.355Z,73.11
2016-07-19T00:56:42.355Z,73.02
2016-07-19T00:57:42.355Z,73.6
2016-07-19T00:58:42.359Z,73.21
2016-07-19T00:59:42.359Z,73.5
2016-07-19T01:00:42.359Z,73.69
2016-07-19T01:01:42.362Z,74.17
2016-07-19T01:02:42.363Z,73.46
2016-07-19T01:03:42.363Z,74.23
2016-07-19T01:04:42.367Z,74.33
2016-07-19T01:05:41.643Z,74.43
2016-07-19T01:06:42.371Z,74.81
2016-07-19T01:07:42.372Z,74.9
2016-07-19T01:08:42.371Z,74.81
2016-07-19T01:09:42.371Z,75.29
2016-07-19T01:10:42.371Z,75.38
2016-07-19T01:11:42.375Z,75.2
2016-07-19T01:12:42.379Z,75.2
2016-07-19T01:13:42.375Z,75.38
2016-07-19T01:14:42.379Z,75.29
2016-07-19T01:15:42.396Z,75.38
2016-07-19T01:16:42.384Z,75.48
2016-07-19T01:17:42.379Z,75.38
2016-07-19T01:18:42.388Z,75.29
2016-07-19T01:19:42.383Z,75.67
2016-07-19T01:20:42.388Z,75.38
2016-07-19T01:21:42.391Z,76.25
2016-07-19T01:22:42.392Z,75.96
2016-07-19T01:23:42.391Z,76.25
2016-07-19T01:24:42.395Z,76.4
2016-07-19T01:25:42.396Z,76.79
2016-07-19T01:26:42.400Z,76.5
2016-07-19T01:27:42.396Z,76.79
2016-07-19T01:28:42.401Z,76.88
2016-07-19T01:29:42.400Z,76.98
2016-07-19T01:30:42.404Z,77.56
2016-07-19T01:31:42.404Z,77.08
2016-07-19T01:32:42.404Z,77.56
2016-07-19T01:33:42.425Z,77.84
2016-07-19T01:34:42.408Z,77.56
2016-07-19T01:35:42.405Z,77.84
2016-07-19T01:36:42.412Z,77.84
2016-07-19T01:37:42.413Z,78.52
2016-07-19T01:38:42.412Z,78.52
2016-07-19T01:39:42.416Z,78.32
2016-07-19T01:40:42.416Z,78.8
2016-07-19T01:41:42.417Z,78.7
2016-07-19T01:42:42.516Z,78.52
2016-07-19T01:43:42.420Z,78.42
2016-07-19T01:44:42.420Z,78.61
2016-07-19T01:45:42.420Z,78.9
2016-07-19T01:46:42.421Z,78.7
2016-07-19T01:47:42.424Z,78.52
2016-07-19T01:48:42.429Z,79.09
2016-07-19T01:49:41.708Z,78.99
2016-07-19T01:50:42.430Z,79.19
2016-07-19T01:51:42.436Z,78.9
2016-07-19T01:52:42.445Z,78.99
2016-07-19T01:53:42.434Z,79.57
2016-07-19T01:54:42.433Z,79.57
2016-07-19T01:55:42.437Z,79.09
2016-07-19T01:56:42.437Z,79.19
2016-07-19T01:57:42.441Z,79.28
2016-07-19T01:58:42.441Z,79.28
2016-07-19T01:59:42.442Z,79.53
2016-07-19T02:00:42.441Z,79.44
2016-07-19T02:01:41.725Z,79.14
2016-07-19T02:02:42.449Z,79.82
2016-07-19T02:03:42.445Z,79.82
2016-07-19T02:04:42.450Z,79.82
2016-07-19T02:05:42.449Z,80.01
2016-07-19T02:06:42.450Z,80.2
2016-07-19T02:07:42.453Z,80.2
2016-07-19T02:08:42.454Z,80.3
2016-07-19T02:09:42.453Z,80.11
2016-07-19T02:10:42.454Z,80.01
2016-07-19T02:11:42.458Z,79.82
2016-07-19T02:12:42.458Z,79.82
2016-07-19T02:13:42.457Z,80.58
2016-07-19T02:14:42.460Z,80.49
2016-07-19T02:15:42.458Z,80.3
2016-07-19T02:16:42.461Z,80.49
2016-07-19T02:17:42.466Z,80.58
2016-07-19T02:18:42.466Z,80.4
2016-07-19T02:19:42.465Z,80.11
2016-07-19T02:20:42.470Z,80.68
2016-07-19T02:21:42.469Z,80.87
2016-07-19T02:22:42.470Z,80.68
2016-07-19T02:23:42.469Z,81.16
2016-07-19T02:24:42.474Z,81.07
2016-07-19T02:25:42.473Z,80.78
2016-07-19T02:26:42.473Z,81.26
2016-07-19T02:27:42.473Z,81.16
2016-07-19T02:28:42.478Z,81.54
2016-07-19T02:29:42.478Z,81.45
2016-07-19T02:30:42.481Z,81.54
2016-07-19T02:31:42.481Z,81.07
2016-07-19T02:32:42.482Z,81.54
2016-07-19T02:33:42.481Z,81.93
2016-07-19T02:34:42.486Z,81.89
2016-07-19T02:35:42.485Z,81.6
2016-07-19T02:36:42.486Z,81.41
2016-07-19T02:37:42.491Z,81.79
2016-07-19T02:38:42.490Z,82.18
2016-07-19T02:39:42.491Z,82.18
2016-07-19T02:40:42.490Z,82.08
2016-07-19T02:41:42.494Z,82.18
2016-07-19T02:42:42.494Z,82.37
2016-07-19T02:43:42.491Z,82.37
2016-07-19T02:44:42.498Z,82.37
2016-07-19T02:45:42.498Z,82.56
2016-07-19T02:46:42.501Z,82.46
2016-07-19T02:47:42.498Z,82.56
2016-07-19T02:48:42.498Z,82.85
2016-07-19T02:49:42.504Z,82.56
2016-07-19T02:50:42.502Z,82.37
2016-07-19T02:51:42.503Z,82.27
2016-07-19T02:52:42.502Z,82.37
2016-07-19T02:53:42.506Z,82.27
2016-07-19T02:54:42.502Z,82.37
2016-07-19T02:55:42.522Z,82.46
2016-07-19T02:56:42.510Z,82.37
2016-07-19T02:57:42.510Z,82.37
2016-07-19T02:58:42.511Z,82.65
2016-07-19T02:59:42.514Z,82.65
2016-07-19T03:00:42.515Z,83.14
2016-07-19T03:01:42.514Z,82.65
2016-07-19T03:02:42.515Z,83.14
2016-07-19T03:03:42.519Z,82.75
2016-07-19T03:04:42.519Z,82.85
2016-07-19T03:05:42.519Z,82.94
2016-07-19T03:06:42.522Z,82.65
2016-07-19T03:07:42.523Z,83.23
2016-07-19T03:08:42.523Z,83.42
2016-07-19T03:09:42.523Z,83.23
2016-07-19T03:10:42.526Z,83.14
2016-07-19T03:11:42.527Z,83.04
2016-07-19T03:12:42.527Z,82.65
2016-07-19T03:13:42.527Z,83.23
2016-07-19T03:14:42.531Z,82.9
2016-07-19T03:15:42.531Z,83.04
2016-07-19T03:16:42.531Z,83.14
2016-07-19T03:17:42.530Z,83
2016-07-19T03:18:42.537Z,83.04
2016-07-19T03:19:42.534Z,82.81
2016-07-19T03:20:42.536Z,83.04
2016-07-19T03:21:42.535Z,83.23
2016-07-19T03:22:42.540Z,83.04
2016-07-19T03:23:42.543Z,82.9
2016-07-19T03:24:42.540Z,83.42
2016-07-19T03:25:42.536Z,82.71
2016-07-19T03:26:42.551Z,82.9
2016-07-19T03:27:42.555Z,83.29
2016-07-19T03:28:41.823Z,83.48
2016-07-19T03:29:42.544Z,83.38
2016-07-19T03:30:42.547Z,83.48
2016-07-19T03:31:42.548Z,83.29
2016-07-19T03:32:42.547Z,83.38
2016-07-19T03:33:42.558Z,83.48
2016-07-19T03:34:42.550Z,83.58
2016-07-19T03:35:42.551Z,83
2016-07-19T03:36:42.552Z,82.9
2016-07-19T03:37:42.551Z,82.81
2016-07-19T03:38:42.556Z,82.9
2016-07-19T03:39:42.556Z,83.09
2016-07-19T03:40:42.556Z,82.9
2016-07-19T03:41:42.556Z,83
2016-07-19T03:42:42.607Z,83
2016-07-19T03:43:42.559Z,82.9
2016-07-19T03:44:42.555Z,83.09
2016-07-19T03:45:42.560Z,82.71
2016-07-19T03:46:42.563Z,83
2016-07-19T03:47:42.563Z,82.9
2016-07-19T03:48:42.563Z,82.9
2016-07-19T03:49:42.568Z,82.9
2016-07-19T03:50:42.568Z,83
2016-07-19T03:51:42.568Z,82.9
2016-07-19T03:52:42.564Z,83
2016-07-19T03:53:42.572Z,83
2016-07-19T03:54:42.572Z,82.94
2016-07-19T03:55:42.572Z,83
2016-07-19T03:56:42.572Z,83.04
2016-07-19T03:57:42.576Z,83.04
2016-07-19T03:58:42.580Z,83
2016-07-19T03:59:42.577Z,82.9
2016-07-19T04:00:42.575Z,82.94
2016-07-19T04:01:42.581Z,82.9
2016-07-19T04:02:42.580Z,83.09
2016-07-19T04:03:42.579Z,82.94
2016-07-19T04:04:42.580Z,83.14
2016-07-19T04:05:42.584Z,83.23
2016-07-19T04:06:42.580Z,82.94
2016-07-19T04:07:42.592Z,82.85
2016-07-19T04:08:42.584Z,82.7
2016-07-19T04:09:42.593Z,82.03
2016-07-19T04:10:42.589Z,81.84
2016-07-19T04:11:42.588Z,81.35
2016-07-19T04:12:42.589Z,80.24
2016-07-19T04:13:42.588Z,79.86
2016-07-19T04:14:42.592Z,79.71
2016-07-19T04:15:42.593Z,79.52
2016-07-19T04:16:42.592Z,78.59
2016-07-19T04:17:42.593Z,78.02
2016-07-19T04:18:42.592Z,77.19
2016-07-19T04:19:42.597Z,76.17
2016-07-19T04:20:42.597Z,75.49
2016-07-19T04:21:42.597Z,73.71
2016-07-19T04:22:42.596Z,73.07
2016-07-19T04:23:42.601Z,72.14
2016-07-19T04:24:42.600Z,70.73
2016-07-19T04:25:42.601Z,69.19
2016-07-19T04:26:42.600Z,68.45
2016-07-19T04:27:42.605Z,67.62
2016-07-19T04:28:42.605Z,65.91
2016-07-19T04:29:42.604Z,65.17
2016-07-19T04:30:42.605Z,63.47
2016-07-19T04:31:42.604Z,62.7
2016-07-19T04:32:42.605Z,61.18
2016-07-19T04:33:42.609Z,59.95
2016-07-19T04:34:42.609Z,59.08
2016-07-19T04:35:42.609Z,57.46
2016-07-19T04:36:42.613Z,56.92
2016-07-19T04:37:42.612Z,55.68
2016-07-19T04:38:42.613Z,54.45
2016-07-19T04:39:42.612Z,53.02
2016-07-19T04:40:42.616Z,52.18
2016-07-19T04:41:42.617Z,50.84
2016-07-19T04:42:42.625Z,49.29
2016-07-19T04:43:42.613Z,48.83
2016-07-19T04:44:42.620Z,48.08
2016-07-19T04:45:42.622Z,47.23
2016-07-19T04:46:42.618Z,45.77
2016-07-19T04:47:42.622Z,45.31
2016-07-19T04:48:42.622Z,45.04
2016-07-19T04:49:42.626Z,43.89
2016-07-19T04:50:42.626Z,42.74
2016-07-19T04:51:42.625Z,42.06
2016-07-19T04:52:42.629Z,40.81
2016-07-19T04:53:42.629Z,39.96
2016-07-19T04:54:42.630Z,38.9
2016-07-19T04:55:42.629Z,38.82
2016-07-19T04:56:42.634Z,37.57
2016-07-19T04:57:42.633Z,36.9
2016-07-19T04:58:41.918Z,36.04
2016-07-19T04:59:42.636Z,35.84
2016-07-19T05:00:43.039Z,35.16
2016-07-19T05:01:42.638Z,34.86
2016-07-19T05:02:42.637Z,34.38
2016-07-19T05:03:42.645Z,34.55
2016-07-19T05:04:42.641Z,34.18
2016-07-19T05:05:42.642Z,34.18
2016-07-19T05:06:42.642Z,33.59
2016-07-19T05:07:42.646Z,33.12
2016-07-19T05:08:42.646Z,33.22
2016-07-19T05:09:42.646Z,32.26
2016-07-19T05:10:42.662Z,31.59
2016-07-19T05:11:42.646Z,31.21
2016-07-19T05:12:42.655Z,30.93
2016-07-19T05:13:42.646Z,30.16
2016-07-19T05:14:42.654Z,29.69
2016-07-19T05:15:42.655Z,28.82
2016-07-19T05:16:42.650Z,28.25
2016-07-19T05:17:42.662Z,28.06
2016-07-19T05:18:42.658Z,27.39
2016-07-19T05:19:42.659Z,26.91
2016-07-19T05:20:42.662Z,26.34
2016-07-19T05:21:42.662Z,25.66
2016-07-19T05:22:42.666Z,25.48
2016-07-19T05:23:42.666Z,24.9
2016-07-19T05:24:42.667Z,24.41
2016-07-19T05:25:42.666Z,24.04
2016-07-19T05:26:42.670Z,23.55
2016-07-19T05:27:42.666Z,23.46
2016-07-19T05:28:42.674Z,23.06
2016-07-19T05:29:42.674Z,22.58
2016-07-19T05:30:42.674Z,22.28
2016-07-19T05:31:42.675Z,21.5
2016-07-19T05:32:42.683Z,21.41
2016-07-19T05:33:42.678Z,21.12
2016-07-19T05:34:42.683Z,20.34
2016-07-19T05:35:42.683Z,19.95
2016-07-19T05:36:42.693Z,19.57
2016-07-19T05:37:42.683Z,19.18
2016-07-19T05:38:42.687Z,18.8
2016-07-19T05:39:42.691Z,18.51
2016-07-19T05:40:42.692Z,18.32
2016-07-19T05:41:42.690Z,16.55
2016-07-19T05:42:42.894Z,16.84
2016-07-19T05:43:42.695Z,16.53
2016-07-19T05:44:42.695Z,16.52
2016-07-19T05:45:42.699Z,16.71
2016-07-19T05:46:42.699Z,17.68
2016-07-19T05:47:42.703Z,17.66
2016-07-19T05:48:42.698Z,18.44
2016-07-19T05:49:42.703Z,19.98
2016-07-19T05:50:42.707Z,20.54
2016-07-19T05:51:42.714Z,20.93
2016-07-19T05:52:42.723Z,20.44
2016-07-19T05:53:42.719Z,20.64
2016-07-19T05:54:42.715Z,20.15
2016-07-19T05:55:42.715Z,20.53
2016-07-19T05:56:42.716Z,21.01
2016-07-19T05:57:42.720Z,21.11
2016-07-19T05:58:42.719Z,21.4
2016-07-19T05:59:42.723Z,21.29
2016-07-19T06:00:42.723Z,22.26
2016-07-19T06:01:42.727Z,22.25
2016-07-19T06:02:42.727Z,22.45
2016-07-19T06:03:42.728Z,22.45
2016-07-19T06:04:42.732Z,22.56
2016-07-19T06:05:42.732Z,22.55
2016-07-19T06:06:42.736Z,22.64
2016-07-19T06:07:42.732Z,23.12
2016-07-19T06:08:42.740Z,22.53
2016-07-19T06:09:42.728Z,22.06
2016-07-19T06:10:42.740Z,22.94
2016-07-19T06:11:42.750Z,22.44
2016-07-19T06:12:42.740Z,22.34
2016-07-19T06:13:42.753Z,22.35
2016-07-19T06:14:42.028Z,21.38
2016-07-19T06:15:42.753Z,21.09
2016-07-19T06:16:42.756Z,21.09
2016-07-19T06:17:42.756Z,21.09
2016-07-19T06:18:42.756Z,21.29
2016-07-19T06:19:42.761Z,21.69
2016-07-19T06:20:42.760Z,21.39
2016-07-19T06:21:42.765Z,21.01
2016-07-19T06:22:42.760Z,20.53
2016-07-19T06:23:42.768Z,20.82
2016-07-19T06:24:42.764Z,20.91
2016-07-19T06:25:42.768Z,20.53
2016-07-19T06:26:42.772Z,20.62
2016-07-19T06:27:42.768Z,20.62
2016-07-19T06:28:42.781Z,20.14
2016-07-19T06:29:42.776Z,20.06
2016-07-19T06:30:42.781Z,18.79
2016-07-19T06:31:42.776Z,18.6
2016-07-19T06:32:42.784Z,18.98
2016-07-19T06:33:42.784Z,19.48
2016-07-19T06:34:42.787Z,19.66
2016-07-19T06:35:42.797Z,19.76
2016-07-19T06:36:42.793Z,19.66
2016-07-19T06:37:42.793Z,19.56
2016-07-19T06:38:42.797Z,19.75
2016-07-19T06:39:42.793Z,19.75
2016-07-19T06:40:42.801Z,19.46
2016-07-19T06:41:42.800Z,19.17
2016-07-19T06:42:42.805Z,18.88
2016-07-19T06:43:42.805Z,18.59
2016-07-19T06:44:42.809Z,18.7
2016-07-19T06:45:42.804Z,18.31
2016-07-19T06:46:42.805Z,18.13
2016-07-19T06:47:42.794Z,17.35
2016-07-19T06:48:42.805Z,17.65
2016-07-19T06:49:42.805Z,17.45
2016-07-19T06:51:02.006Z,17.35
2016-07-19T06:51:42.803Z,17.35
2016-07-19T06:52:42.806Z,17.55
2016-07-19T06:53:42.811Z,18.14
2016-07-19T06:54:42.810Z,17.65
2016-07-19T06:55:42.811Z,17.64
2016-07-19T06:56:42.814Z,18.04
2016-07-19T06:57:42.819Z,18.12
2016-07-19T06:58:42.819Z,17.24
2016-07-19T06:59:42.830Z,17.55
2016-07-19T07:00:45.859Z,16.47
2016-07-19T07:01:42.827Z,16.48
2016-07-19T07:02:42.827Z,16.87
2016-07-19T07:03:42.832Z,16.19
2016-07-19T07:04:42.850Z,16.19
2016-07-19T07:05:42.848Z,16.5
2016-07-19T07:06:42.854Z,16.4
2016-07-19T07:07:42.863Z,16.5
2016-07-19T07:08:42.858Z,16.69
2016-07-19T07:09:42.863Z,16.69
2016-07-19T07:10:42.866Z,16.19
2016-07-19T07:11:42.874Z,16.09
2016-07-19T07:12:42.875Z,16.09
2016-07-19T07:13:42.874Z,16.29
2016-07-19T07:14:42.874Z,16.1
2016-07-19T07:15:42.874Z,16.2
2016-07-19T07:16:42.878Z,16.1
2016-07-19T07:17:42.879Z,16.4
2016-07-19T07:18:42.883Z,15.91
2016-07-19T07:19:42.887Z,15.61
2016-07-19T07:20:42.887Z,15.42
2016-07-19T07:21:42.886Z,15.33
2016-07-19T07:22:42.891Z,14.95
2016-07-19T07:23:42.890Z,14.65
2016-07-19T07:24:42.895Z,14.36
2016-07-19T07:25:42.898Z,14.56
2016-07-19T07:26:42.902Z,14.36
2016-07-19T07:27:42.903Z,14.84
2016-07-19T07:28:42.903Z,15.33
2016-07-19T07:29:42.907Z,16.88
2016-07-19T07:30:42.907Z,17.16
2016-07-19T07:31:42.911Z,17.16
2016-07-19T07:32:42.915Z,17.16
2016-07-19T07:33:42.924Z,17.85
2016-07-19T07:34:42.919Z,18.14
2016-07-19T07:35:42.920Z,18.13
2016-07-19T07:36:42.199Z,17.94
2016-07-19T07:37:42.923Z,18.04
2016-07-19T07:38:42.923Z,17.66
2016-07-19T07:39:42.928Z,17.46
2016-07-19T07:40:42.931Z,17.27
2016-07-19T07:41:42.931Z,17.56
2016-07-19T07:42:42.936Z,17.16
2016-07-19T07:43:42.943Z,16.77
2016-07-19T07:44:42.940Z,16.48
2016-07-19T07:45:42.943Z,16.39
2016-07-19T07:46:42.943Z,16.5
2016-07-19T07:47:42.949Z,16.02
2016-07-19T07:48:42.952Z,15.63
2016-07-19T07:49:42.232Z,15.33
2016-07-19T07:50:42.955Z,15.14
2016-07-19T07:51:42.956Z,15.13
2016-07-19T07:52:42.960Z,15.13
2016-07-19T07:53:42.240Z,15.33
2016-07-19T07:54:42.963Z,15.42
2016-07-19T07:55:42.968Z,15.92
2016-07-19T07:56:42.967Z,15.61
2016-07-19T07:57:42.968Z,15.13
2016-07-19T07:58:42.972Z,15.72
2016-07-19T07:59:42.976Z,16.01
2016-07-19T08:00:42.976Z,16.01
2016-07-19T08:01:42.980Z,16.31
2016-07-19T08:02:42.983Z,16.11
2016-07-19T08:03:42.984Z,16.41
2016-07-19T08:04:42.989Z,16.71
2016-07-19T08:05:42.988Z,17.57
2016-07-19T08:06:42.993Z,17.95
2016-07-19T08:07:42.993Z,17.94
2016-07-19T08:08:42.996Z,18.04
2016-07-19T08:09:43.000Z,18.23
2016-07-19T08:10:43.000Z,18.23
2016-07-19T08:11:43.004Z,17.75
2016-07-19T08:12:43.005Z,17.55
2016-07-19T08:13:43.009Z,17.66
2016-07-19T08:14:43.008Z,17.45
2016-07-19T08:15:43.013Z,17.46
2016-07-19T08:16:43.016Z,17.56
2016-07-19T08:17:43.016Z,18.05
2016-07-19T08:18:43.020Z,18.24
2016-07-19T08:19:42.296Z,17.46
2016-07-19T08:20:43.024Z,17.46
2016-07-19T08:21:43.028Z,16.78
2016-07-19T08:22:43.028Z,16.78
2016-07-19T08:23:43.032Z,16.49
2016-07-19T08:24:43.032Z,16.1
2016-07-19T08:25:43.036Z,15.91
2016-07-19T08:26:43.036Z,15.42
2016-07-19T08:27:43.041Z,14.94
2016-07-19T08:28:43.045Z,14.45
2016-07-19T08:29:43.044Z,15.24
2016-07-19T08:30:43.053Z,15.44
2016-07-19T08:31:43.049Z,15.63
2016-07-19T08:32:43.053Z,16.31
2016-07-19T08:33:43.058Z,16.69
2016-07-19T08:34:43.062Z,16.49
2016-07-19T08:35:43.061Z,16.68
2016-07-19T08:36:43.061Z,17.07
2016-07-19T08:37:43.065Z,17.37
2016-07-19T08:38:43.069Z,17.47
2016-07-19T08:39:43.069Z,17.57
2016-07-19T08:40:43.068Z,17.36
2016-07-19T08:41:42.361Z,17.66
2016-07-19T08:42:43.129Z,17.95
2016-07-19T08:43:43.081Z,18.24
2016-07-19T08:44:43.082Z,18.24
2016-07-19T08:45:43.085Z,18.34
2016-07-19T08:46:43.089Z,18.33
2016-07-19T08:47:43.090Z,18.52
2016-07-19T08:48:43.094Z,18.43
2016-07-19T08:49:43.093Z,18.62
2016-07-19T08:50:43.097Z,18.52
2016-07-19T08:51:43.097Z,18.91
2016-07-19T08:52:43.102Z,18.41
2016-07-19T08:53:43.106Z,19.2
2016-07-19T08:54:43.105Z,19.98
2016-07-19T08:55:43.110Z,19.96
2016-07-19T08:56:43.113Z,20.25
2016-07-19T08:57:43.114Z,21.22
2016-07-19T08:58:43.118Z,21.12
2016-07-19T08:59:43.118Z,20.84
2016-07-19T09:00:43.122Z,20.65
2016-07-19T09:01:43.125Z,19.96
2016-07-19T09:02:43.126Z,19.1
2016-07-19T09:03:43.130Z,18.81
2016-07-19T09:04:55.855Z,18.13
2016-07-19T09:05:43.135Z,18.24
2016-07-19T09:06:43.138Z,18.14
2016-07-19T09:07:43.138Z,18.25
2016-07-19T09:08:43.141Z,18.73
2016-07-19T09:09:43.143Z,18.14
2016-07-19T09:10:43.147Z,18.34
2016-07-19T09:11:43.151Z,18.44
2016-07-19T09:12:43.151Z,17.75
2016-07-19T09:13:43.154Z,17.55
2016-07-19T09:14:43.155Z,18.44
2016-07-19T09:15:43.159Z,18.14
2016-07-19T09:16:43.162Z,18.24
2016-07-19T09:17:43.163Z,18.44
2016-07-19T09:18:43.167Z,18.54
2016-07-19T09:19:43.171Z,17.94
2016-07-19T09:20:43.171Z,18.54
2016-07-19T09:21:43.174Z,18.44
2016-07-19T09:22:43.175Z,18.04
2016-07-19T09:23:43.179Z,17.65
2016-07-19T09:24:43.183Z,18.34
2016-07-19T09:25:43.183Z,18.33
2016-07-19T09:26:43.187Z,18.52
2016-07-19T09:27:43.186Z,18.42
2016-07-19T09:28:43.191Z,18.52
2016-07-19T09:29:43.195Z,18.52
2016-07-19T09:30:43.202Z,18.81
2016-07-19T09:31:42.480Z,19.2
2016-07-19T09:32:43.199Z,19.2
2016-07-19T09:33:43.203Z,18.71
2016-07-19T09:34:43.207Z,18.23
2016-07-19T09:35:43.208Z,18.23
2016-07-19T09:36:43.211Z,18.13
2016-07-19T09:37:43.220Z,18.13
2016-07-19T09:38:43.215Z,17.94
2016-07-19T09:39:43.219Z,18.43
2016-07-19T09:40:43.222Z,18.04
2016-07-19T09:41:43.222Z,18.23
2016-07-19T09:42:43.223Z,18.42
2016-07-19T09:43:43.227Z,18.41
2016-07-19T09:44:43.232Z,18.31
2016-07-19T09:45:43.234Z,18.8
2016-07-19T09:46:43.235Z,19.38
2016-07-19T09:47:43.239Z,19.77
2016-07-19T09:48:43.243Z,20.15
2016-07-19T09:49:43.239Z,20.64
2016-07-19T09:50:43.248Z,21.42
2016-07-19T09:51:43.247Z,22.19
2016-07-19T09:52:43.251Z,23.16
2016-07-19T09:53:43.251Z,24.03
2016-07-19T09:54:43.255Z,25.28
2016-07-19T09:55:43.271Z,26.83
2016-07-19T09:56:43.264Z,27.49
2016-07-19T09:57:43.263Z,28.54
2016-07-19T09:58:43.267Z,29.11
2016-07-19T09:59:43.268Z,29.7
2016-07-19T10:00:43.271Z,29.59
2016-07-19T10:01:43.272Z,29.88
2016-07-19T10:02:43.275Z,29.98
2016-07-19T10:03:43.279Z,30.18
2016-07-19T10:04:43.279Z,30.47
2016-07-19T10:05:43.287Z,30.47
2016-07-19T10:06:43.289Z,30.37
2016-07-19T10:07:43.288Z,30.57
2016-07-19T10:08:43.292Z,30.86
2016-07-19T10:09:43.295Z,31.04
2016-07-19T10:10:43.296Z,31.04
2016-07-19T10:11:43.300Z,31.33
2016-07-19T10:12:43.304Z,31.41
2016-07-19T10:13:43.305Z,32.19
2016-07-19T10:14:43.308Z,32.29
2016-07-19T10:15:43.307Z,32.78
2016-07-19T10:16:43.312Z,32.96
2016-07-19T10:17:43.320Z,34.12
2016-07-19T10:18:43.315Z,33.83
2016-07-19T10:19:43.320Z,33.54
2016-07-19T10:20:43.324Z,34.21
2016-07-19T10:21:43.323Z,34.59
2016-07-19T10:22:43.328Z,34.79
2016-07-19T10:23:43.328Z,34.89
2016-07-19T10:24:43.331Z,34.5
2016-07-19T10:25:43.340Z,32.94
2016-07-19T10:26:43.336Z,32.92
2016-07-19T10:27:43.340Z,32.43
2016-07-19T10:28:43.556Z,32.15
2016-07-19T10:29:43.344Z,32.92
2016-07-19T10:30:43.348Z,33.23
2016-07-19T10:31:43.348Z,33.53
2016-07-19T10:32:43.348Z,33.43
2016-07-19T10:33:43.355Z,32.94
2016-07-19T10:34:43.356Z,33.33
2016-07-19T10:35:43.360Z,33.33
2016-07-19T10:36:43.364Z,34.32
2016-07-19T10:37:43.365Z,34.12
2016-07-19T10:38:43.370Z,33.93
2016-07-19T10:39:43.368Z,34.24
2016-07-19T10:40:43.372Z,33.85
2016-07-19T10:41:43.377Z,32.97
2016-07-19T10:42:43.428Z,32.19
2016-07-19T10:43:43.381Z,31.99
2016-07-19T10:44:43.379Z,32.19
2016-07-19T10:45:42.664Z,32.09
2016-07-19T10:46:43.389Z,31.7
2016-07-19T10:47:42.672Z,32.09
2016-07-19T10:48:43.393Z,32.19
2016-07-19T10:49:43.397Z,32.97
2016-07-19T10:50:43.397Z,33.07
2016-07-19T10:51:43.401Z,33.07
2016-07-19T10:52:43.401Z,32.97
2016-07-19T10:53:43.404Z,33.17
2016-07-19T10:54:43.408Z,33.36
2016-07-19T10:55:42.684Z,33.26
2016-07-19T10:56:43.412Z,33.46
2016-07-19T10:57:43.416Z,33.26
2016-07-19T10:58:43.416Z,33.15
2016-07-19T10:59:43.421Z,33.07
2016-07-19T11:00:43.424Z,32.78
2016-07-19T11:01:43.424Z,33.17
2016-07-19T11:02:43.429Z,33.07
2016-07-19T11:03:43.429Z,33.46
2016-07-19T11:04:42.722Z,33.36
2016-07-19T11:05:43.437Z,33.07
2016-07-19T11:06:43.436Z,33.26
2016-07-19T11:07:43.441Z,33.07
2016-07-19T11:08:43.444Z,32.87
2016-07-19T11:09:43.445Z,33.46
2016-07-19T11:10:43.449Z,33.07
2016-07-19T11:11:43.450Z,33.46
2016-07-19T11:12:43.453Z,33.06
2016-07-19T11:13:43.457Z,32.78
2016-07-19T11:14:43.458Z,32.39
2016-07-19T11:15:43.461Z,32.09
2016-07-19T11:16:43.464Z,32.37
2016-07-19T11:17:43.465Z,31.98
2016-07-19T11:18:43.469Z,32.76
2016-07-19T11:19:43.469Z,33.15
2016-07-19T11:20:43.473Z,33.34
2016-07-19T11:21:43.476Z,33.06
2016-07-19T11:22:43.477Z,32.86
2016-07-19T11:23:43.481Z,33.06
2016-07-19T11:24:43.477Z,33.23
2016-07-19T11:25:43.485Z,33.23
2016-07-19T11:26:43.490Z,33.53
2016-07-19T11:27:43.489Z,33.53
2016-07-19T11:28:43.493Z,33.72
2016-07-19T11:29:43.498Z,34.5
2016-07-19T11:30:43.498Z,34.21
2016-07-19T11:31:43.502Z,34.19
2016-07-19T11:32:43.501Z,34.29
2016-07-19T11:33:43.505Z,34.29
2016-07-19T11:34:43.514Z,34.5
2016-07-19T11:35:43.510Z,34.59
2016-07-19T11:36:43.515Z,34.69
2016-07-19T11:37:43.518Z,34.71
2016-07-19T11:38:43.518Z,34.61
2016-07-19T11:39:43.522Z,34.22
2016-07-19T11:40:43.519Z,33.65
2016-07-19T11:41:43.526Z,33.26
2016-07-19T11:42:43.530Z,33.65
2016-07-19T11:43:43.535Z,33.65
2016-07-19T11:44:43.535Z,33.67
2016-07-19T11:45:43.539Z,33.18
2016-07-19T11:46:43.538Z,32.7
2016-07-19T11:47:43.547Z,32.19
2016-07-19T11:48:43.547Z,32.09
2016-07-19T11:49:43.546Z,32.68
2016-07-19T11:50:43.551Z,32.86
2016-07-19T11:51:43.554Z,33.34
2016-07-19T11:52:43.550Z,33.25
2016-07-19T11:53:43.559Z,33.25
2016-07-19T11:54:43.559Z,32.86
2016-07-19T11:55:43.567Z,32.58
2016-07-19T11:56:43.566Z,32.96
2016-07-19T11:57:43.567Z,33.25
2016-07-19T11:58:43.570Z,33.64
2016-07-19T11:59:43.575Z,34.21
2016-07-19T12:00:43.575Z,34.5
2016-07-19T12:01:43.579Z,34.4
2016-07-19T12:02:43.583Z,34.11
2016-07-19T12:03:43.583Z,33.14
2016-07-19T12:04:43.587Z,33.04
2016-07-19T12:05:43.582Z,33.04
2016-07-19T12:06:43.591Z,32.94
2016-07-19T12:07:43.596Z,33.23
2016-07-19T12:08:43.595Z,32.75
2016-07-19T12:09:43.599Z,32.75
2016-07-19T12:10:43.604Z,32.55
2016-07-19T12:11:43.603Z,32.08
2016-07-19T12:12:43.607Z,32.47
2016-07-19T12:13:43.607Z,32.08
2016-07-19T12:14:43.611Z,31.69
2016-07-19T12:15:43.616Z,32.57
2016-07-19T12:16:43.616Z,32.86
2016-07-19T12:17:43.620Z,32.84
2016-07-19T12:18:42.902Z,32.57
2016-07-19T12:19:43.619Z,32.67
2016-07-19T12:20:43.629Z,32.65
2016-07-19T12:21:43.632Z,32.55
2016-07-19T12:22:43.631Z,32.16
2016-07-19T12:23:43.636Z,32.28
2016-07-19T12:24:43.635Z,32.86
2016-07-19T12:25:43.639Z,32.75
2016-07-19T12:26:43.645Z,32.55
2016-07-19T12:27:43.644Z,32.37
2016-07-19T12:28:43.648Z,32.86
2016-07-19T12:29:43.652Z,32.96
2016-07-19T12:30:43.652Z,32.18
2016-07-19T12:31:43.656Z,32.67
2016-07-19T12:32:43.655Z,33.15
2016-07-19T12:33:43.668Z,32.75
2016-07-19T12:34:43.664Z,32.75
2016-07-19T12:35:43.663Z,32.84
2016-07-19T12:36:43.680Z,33.14
2016-07-19T12:37:43.673Z,32.94
2016-07-19T12:38:43.673Z,32.94
2016-07-19T12:39:43.676Z,33.04
2016-07-19T12:40:43.693Z,33.23
2016-07-19T12:41:43.680Z,33.43
2016-07-19T12:42:43.733Z,33.92
2016-07-19T12:43:43.685Z,32.75
2016-07-19T12:44:43.688Z,32.26
2016-07-19T12:45:43.692Z,31.57
2016-07-19T12:46:43.693Z,32.35
2016-07-19T12:47:43.697Z,32.75
2016-07-19T12:48:42.977Z,32.55
2016-07-19T12:49:43.701Z,32.16
2016-07-19T12:50:43.705Z,31.88
2016-07-19T12:51:43.705Z,32.16
2016-07-19T12:52:43.709Z,31.96
2016-07-19T12:53:43.714Z,31.77
2016-07-19T12:54:43.714Z,31.57
2016-07-19T12:55:43.717Z,31.95
2016-07-19T12:56:43.720Z,32.06